createdAt,value
2017-08-28T00:01:33.710Z,18.50
2017-08-28T00:04:01.320Z,18.30
2017-08-28T00:06:28.867Z,18.30
2017-08-28T00:08:56.412Z,18.30
2017-08-28T00:11:24.003Z,18.40
2017-08-28T00:13:51.526Z,18.50
2017-08-28T00:16:19.104Z,18.30
2017-08-28T00:18:46.654Z,18.20
2017-08-28T00:21:14.168Z,18.20
2017-08-28T00:23:41.719Z,18.20
2017-08-28T00:26:09.231Z,18.20
2017-08-28T00:28:36.790Z,18.10
2017-08-28T00:31:04.311Z,18.20
2017-08-28T00:33:31.867Z,18.20
2017-08-28T00:35:59.384Z,18.00
2017-08-28T00:38:26.936Z,18.00
2017-08-28T00:40:54.481Z,18.10
2017-08-28T00:43:22.040Z,18.20
2017-08-28T00:45:49.612Z,17.90
2017-08-28T00:48:17.127Z,18.20
2017-08-28T00:50:44.709Z,18.30
2017-08-28T00:53:12.224Z,18.10
2017-08-28T00:55:39.744Z,18.10
2017-08-28T00:58:07.273Z,18.00
2017-08-28T01:00:34.792Z,18.00
2017-08-28T01:03:02.384Z,18.10
2017-08-28T01:05:29.943Z,18.30
2017-08-28T01:07:57.460Z,18.40
2017-08-28T01:10:25.007Z,18.10
2017-08-28T01:12:52.524Z,18.00
2017-08-28T01:15:20.087Z,18.10
2017-08-28T01:17:47.652Z,18.10
2017-08-28T01:20:15.166Z,18.20
2017-08-28T01:22:42.755Z,18.10
2017-08-28T01:25:10.281Z,18.00
2017-08-28T01:27:37.791Z,18.10
2017-08-28T01:30:05.353Z,18.20
2017-08-28T01:32:32.869Z,18.20
2017-08-28T01:35:00.388Z,18.20
2017-08-28T01:37:27.923Z,18.10
2017-08-28T01:39:55.435Z,18.20
2017-08-28T01:42:22.980Z,18.00
2017-08-28T01:44:50.499Z,18.00
2017-08-28T01:47:18.048Z,17.80
2017-08-28T01:49:45.939Z,18.00
2017-08-28T01:52:13.492Z,17.80
2017-08-28T01:54:41.015Z,17.80
2017-08-28T01:57:08.668Z,17.80
2017-08-28T01:59:36.250Z,17.80
2017-08-28T02:02:03.799Z,17.80
2017-08-28T02:04:31.402Z,17.70
2017-08-28T02:06:58.967Z,17.80
2017-08-28T02:09:26.552Z,17.90
2017-08-28T02:11:54.307Z,18.10
2017-08-28T02:14:21.872Z,18.10
2017-08-28T02:16:49.428Z,18.20
2017-08-28T02:19:16.943Z,18.10
2017-08-28T02:21:44.465Z,17.80
2017-08-28T02:24:12.019Z,17.70
2017-08-28T02:26:39.527Z,17.70
2017-08-28T02:29:07.103Z,17.70
2017-08-28T02:31:34.729Z,17.70
2017-08-28T02:34:02.365Z,17.80
2017-08-28T02:36:29.900Z,17.70
2017-08-28T02:38:57.693Z,17.70
2017-08-28T02:41:25.280Z,17.60
2017-08-28T02:43:52.861Z,17.70
2017-08-28T02:46:20.391Z,17.90
2017-08-28T02:48:47.949Z,17.70
2017-08-28T02:51:15.517Z,17.60
2017-08-28T02:53:43.038Z,17.50
2017-08-28T02:56:10.624Z,17.50
2017-08-28T02:58:38.151Z,17.50
2017-08-28T03:01:05.665Z,17.60
2017-08-28T03:03:33.236Z,17.50
2017-08-28T03:06:00.776Z,17.50
2017-08-28T03:08:28.338Z,17.30
2017-08-28T03:10:55.887Z,17.50
2017-08-28T03:13:23.424Z,17.40
2017-08-28T03:15:50.966Z,17.40
2017-08-28T03:18:18.530Z,17.40
2017-08-28T03:20:46.085Z,17.40
2017-08-28T03:23:13.639Z,17.50
2017-08-28T03:25:41.189Z,17.30
2017-08-28T03:28:08.737Z,17.40
2017-08-28T03:30:36.265Z,17.30
2017-08-28T03:33:03.810Z,17.40
2017-08-28T03:35:31.563Z,17.50
2017-08-28T03:37:59.188Z,17.40
2017-08-28T03:40:26.742Z,17.50
2017-08-28T03:42:54.256Z,17.60
2017-08-28T03:45:21.812Z,17.50
2017-08-28T03:47:49.332Z,17.60
2017-08-28T03:50:16.847Z,17.40
2017-08-28T03:52:44.392Z,17.20
2017-08-28T03:55:11.908Z,17.40
2017-08-28T03:57:39.436Z,17.30
2017-08-28T04:00:07.002Z,17.30
2017-08-28T04:02:34.563Z,17.40
2017-08-28T04:05:02.117Z,17.30
2017-08-28T04:07:29.652Z,17.30
2017-08-28T04:09:57.204Z,17.50
2017-08-28T04:12:24.831Z,17.50
2017-08-28T04:14:52.408Z,17.50
2017-08-28T04:17:20.027Z,17.60
2017-08-28T04:19:47.548Z,17.40
2017-08-28T04:22:15.111Z,17.30
2017-08-28T04:24:42.759Z,17.50
2017-08-28T04:27:10.272Z,17.30
2017-08-28T04:29:37.984Z,17.40
2017-08-28T04:32:05.567Z,17.30
2017-08-28T04:34:33.181Z,17.30
2017-08-28T04:37:00.727Z,17.30
2017-08-28T04:39:28.280Z,17.30
2017-08-28T04:41:55.824Z,17.20
2017-08-28T04:44:23.468Z,17.20
2017-08-28T04:46:51.013Z,17.20
2017-08-28T04:49:18.564Z,17.30
2017-08-28T04:51:46.118Z,17.30
2017-08-28T04:54:13.852Z,17.20
2017-08-28T04:56:41.383Z,17.30
2017-08-28T04:59:08.891Z,17.40
2017-08-28T05:01:36.439Z,17.40
2017-08-28T05:04:03.957Z,17.50
2017-08-28T05:06:31.527Z,17.20
2017-08-28T05:08:59.132Z,17.20
2017-08-28T05:11:26.682Z,17.20
2017-08-28T05:13:54.259Z,17.40
2017-08-28T05:16:21.864Z,17.40
2017-08-28T05:18:49.460Z,17.30
2017-08-28T05:21:16.975Z,17.20
2017-08-28T05:23:44.666Z,17.50
2017-08-28T05:26:12.208Z,17.60
2017-08-28T05:28:39.723Z,17.70
2017-08-28T05:31:07.278Z,17.80
2017-08-28T05:33:34.823Z,18.00
2017-08-28T05:36:02.364Z,18.10
2017-08-28T05:38:29.924Z,18.40
2017-08-28T05:40:57.440Z,18.30
2017-08-28T05:43:24.999Z,18.40
2017-08-28T05:45:52.654Z,18.80
2017-08-28T05:48:20.174Z,18.90
2017-08-28T05:50:47.682Z,18.90
2017-08-28T05:53:15.314Z,19.00
2017-08-28T05:55:42.842Z,19.10
2017-08-28T05:58:10.392Z,19.00
2017-08-28T06:00:38.040Z,19.20
2017-08-28T06:03:05.627Z,19.40
2017-08-28T06:05:33.154Z,19.20
2017-08-28T06:08:00.769Z,19.20
2017-08-28T06:10:28.274Z,19.30
2017-08-28T06:12:55.788Z,19.50
2017-08-28T06:15:23.334Z,19.80
2017-08-28T06:17:50.841Z,20.20
2017-08-28T06:20:18.375Z,20.20
2017-08-28T06:22:45.887Z,20.20
2017-08-28T06:25:13.452Z,20.40
2017-08-28T06:27:40.957Z,20.40
2017-08-28T06:30:08.510Z,20.70
2017-08-28T06:32:36.063Z,20.90
2017-08-28T06:35:03.570Z,20.80
2017-08-28T06:37:31.084Z,20.90
2017-08-28T06:39:58.652Z,20.80
2017-08-28T06:42:26.169Z,20.80
2017-08-28T06:44:53.729Z,21.10
2017-08-28T06:47:21.260Z,20.90
2017-08-28T06:49:48.783Z,20.80
2017-08-28T06:52:16.327Z,20.80
2017-08-28T06:54:43.867Z,20.70
2017-08-28T06:57:11.451Z,20.80
2017-08-28T06:59:39.004Z,21.00
2017-08-28T07:02:06.520Z,21.10
2017-08-28T07:04:34.035Z,21.20
2017-08-28T07:07:01.593Z,21.20
2017-08-28T07:09:29.104Z,21.50
2017-08-28T07:11:56.616Z,21.50
2017-08-28T07:14:24.236Z,21.50
2017-08-28T07:16:51.751Z,21.70
2017-08-28T07:19:19.263Z,22.10
2017-08-28T07:21:46.827Z,22.20
2017-08-28T07:24:14.411Z,22.30
2017-08-28T07:26:41.915Z,22.50
2017-08-28T07:29:09.419Z,22.80
2017-08-28T07:31:37.035Z,23.10
2017-08-28T07:34:19.375Z,23.50
2017-08-28T07:36:47.084Z,23.70
2017-08-28T07:39:14.645Z,24.20
2017-08-28T07:41:42.202Z,24.20
2017-08-28T07:44:09.709Z,24.30
2017-08-28T07:46:37.222Z,24.50
2017-08-28T07:49:04.766Z,24.20
2017-08-28T07:51:32.327Z,24.20
2017-08-28T07:53:59.944Z,24.20
2017-08-28T07:56:27.448Z,24.00
2017-08-28T07:58:55.023Z,24.00
2017-08-28T08:01:22.532Z,24.10
2017-08-28T08:03:50.039Z,24.40
2017-08-28T08:06:17.587Z,24.70
2017-08-28T08:08:45.103Z,24.50
2017-08-28T08:11:12.655Z,24.70
2017-08-28T08:13:40.263Z,25.00
2017-08-28T08:16:07.811Z,24.90
2017-08-28T08:18:35.388Z,25.20
2017-08-28T08:21:02.958Z,25.80
2017-08-28T08:23:30.467Z,26.00
2017-08-28T08:25:58.014Z,26.20
2017-08-28T08:28:25.522Z,26.60
2017-08-28T08:30:53.069Z,26.70
2017-08-28T08:33:26.315Z,26.90
2017-08-28T08:35:53.855Z,26.90
2017-08-28T08:38:21.379Z,27.00
2017-08-28T08:40:48.932Z,27.10
2017-08-28T08:43:16.559Z,27.30
2017-08-28T08:45:44.092Z,27.70
2017-08-28T08:48:11.696Z,27.90
2017-08-28T08:50:39.219Z,28.00
2017-08-28T08:53:06.760Z,27.50
2017-08-28T08:55:34.395Z,27.00
2017-08-28T08:58:01.907Z,26.40
2017-08-28T09:00:29.452Z,25.90
2017-08-28T09:02:56.956Z,25.60
2017-08-28T09:05:24.611Z,25.40
2017-08-28T09:07:52.119Z,25.20
2017-08-28T09:10:19.650Z,25.00
2017-08-28T09:12:47.230Z,25.00
2017-08-28T09:15:14.830Z,25.10
2017-08-28T09:17:42.391Z,25.10
2017-08-28T09:20:09.951Z,24.90
2017-08-28T09:22:37.508Z,24.80
2017-08-28T09:25:05.046Z,25.00
2017-08-28T09:27:32.560Z,25.60
2017-08-28T09:30:00.112Z,26.40
2017-08-28T09:32:27.620Z,26.80
2017-08-28T09:34:55.221Z,27.30
2017-08-28T09:37:22.831Z,27.70
2017-08-28T09:39:50.339Z,27.90
2017-08-28T09:42:17.864Z,27.60
2017-08-28T09:44:45.410Z,27.20
2017-08-28T09:47:12.971Z,27.30
2017-08-28T09:49:40.505Z,27.70
2017-08-28T09:52:08.128Z,27.90
2017-08-28T09:54:35.719Z,28.10
2017-08-28T09:57:03.239Z,28.50
2017-08-28T09:59:30.816Z,28.60
2017-08-28T10:01:58.444Z,28.60
2017-08-28T10:04:25.959Z,28.90
2017-08-28T10:06:53.540Z,28.70
2017-08-28T10:09:21.112Z,28.60
2017-08-28T10:11:48.628Z,28.50
2017-08-28T10:14:16.151Z,28.80
2017-08-28T10:16:43.698Z,28.90
2017-08-28T10:19:11.255Z,29.10
2017-08-28T10:21:38.876Z,28.80
2017-08-28T10:24:06.412Z,28.50
2017-08-28T10:26:34.069Z,28.20
2017-08-28T10:29:01.616Z,27.90
2017-08-28T10:31:29.132Z,27.60
2017-08-28T10:33:56.725Z,27.50
2017-08-28T10:36:24.236Z,27.40
2017-08-28T10:38:51.793Z,27.40
2017-08-28T10:41:19.411Z,27.30
2017-08-28T10:43:46.928Z,27.20
2017-08-28T10:46:14.513Z,27.40
2017-08-28T10:48:42.934Z,27.50
2017-08-28T10:51:10.448Z,27.70
2017-08-28T10:53:38.010Z,28.00
2017-08-28T10:56:06.340Z,28.60
2017-08-28T10:58:33.851Z,28.60
2017-08-28T11:01:01.427Z,28.50
2017-08-28T11:03:29.026Z,28.60
2017-08-28T11:05:56.539Z,28.90
2017-08-28T11:08:24.100Z,29.20
2017-08-28T11:10:51.658Z,28.80
2017-08-28T11:13:19.179Z,28.90
2017-08-28T11:15:46.703Z,29.00
2017-08-28T11:18:14.257Z,29.40
2017-08-28T11:20:41.848Z,29.80
2017-08-28T11:23:09.407Z,29.90
2017-08-28T11:25:36.940Z,29.90
2017-08-28T11:28:04.477Z,30.20
2017-08-28T11:30:32.109Z,30.40
2017-08-28T11:32:59.692Z,30.60
2017-08-28T11:35:27.392Z,30.90
2017-08-28T11:37:54.964Z,31.00
2017-08-28T11:40:22.646Z,31.00
2017-08-28T11:42:50.179Z,30.80
2017-08-28T11:45:17.791Z,30.80
2017-08-28T11:47:45.312Z,31.10
2017-08-28T11:50:12.893Z,31.00
2017-08-28T11:52:40.480Z,31.10
2017-08-28T11:55:08.007Z,31.30
2017-08-28T11:57:35.587Z,31.50
2017-08-28T12:00:03.262Z,31.50
2017-08-28T12:02:30.775Z,31.10
2017-08-28T12:04:58.340Z,30.90
2017-08-28T12:07:26.047Z,30.90
2017-08-28T12:09:53.612Z,30.50
2017-08-28T12:12:21.286Z,30.50
2017-08-28T12:14:48.851Z,30.20
2017-08-28T12:17:16.398Z,30.50
2017-08-28T12:19:43.907Z,30.70
2017-08-28T12:22:11.540Z,30.60
2017-08-28T12:24:39.057Z,30.60
2017-08-28T12:27:06.575Z,30.70
2017-08-28T12:29:34.236Z,30.60
2017-08-28T12:32:01.764Z,30.90
2017-08-28T12:34:30.070Z,30.90
2017-08-28T12:36:57.629Z,30.80
2017-08-28T12:39:25.144Z,30.70
2017-08-28T12:41:52.716Z,30.50
2017-08-28T12:44:20.263Z,30.50
2017-08-28T12:46:48.192Z,30.40
2017-08-28T12:49:15.699Z,30.20
2017-08-28T12:51:43.215Z,30.00
2017-08-28T12:54:10.779Z,29.50
2017-08-28T12:56:38.299Z,29.10
2017-08-28T12:59:05.871Z,29.10
2017-08-28T13:01:33.398Z,28.90
2017-08-28T13:04:01.034Z,28.60
2017-08-28T13:06:28.656Z,28.00
2017-08-28T13:08:56.268Z,27.80
2017-08-28T13:11:23.965Z,27.80
2017-08-28T13:13:51.646Z,27.80
2017-08-28T13:16:19.163Z,27.80
2017-08-28T13:18:46.701Z,27.70
2017-08-28T13:21:14.283Z,27.60
2017-08-28T13:23:41.832Z,27.60
2017-08-28T13:26:09.352Z,27.40
2017-08-28T13:28:36.906Z,27.40
2017-08-28T13:31:04.507Z,27.60
2017-08-28T13:33:32.028Z,27.40
2017-08-28T13:35:59.547Z,27.30
2017-08-28T13:38:27.105Z,27.50
2017-08-28T13:40:55.087Z,27.60
2017-08-28T13:43:22.668Z,27.50
2017-08-28T13:45:50.215Z,27.50
2017-08-28T13:48:17.752Z,27.30
2017-08-28T13:50:45.423Z,27.20
2017-08-28T13:53:12.940Z,27.30
2017-08-28T13:55:40.471Z,27.10
2017-08-28T13:58:08.020Z,27.00
2017-08-28T14:00:35.555Z,26.90
2017-08-28T14:03:03.273Z,26.80
2017-08-28T14:05:30.866Z,26.80
2017-08-28T14:08:03.296Z,26.60
2017-08-28T14:10:30.884Z,26.70
2017-08-28T14:12:58.532Z,26.60
2017-08-28T14:15:26.107Z,26.60
2017-08-28T14:17:53.663Z,26.40
2017-08-28T14:20:21.259Z,26.50
2017-08-28T14:22:48.768Z,26.60
2017-08-28T14:25:16.291Z,26.60
2017-08-28T14:27:43.854Z,26.60
2017-08-28T14:30:11.379Z,26.60
2017-08-28T14:32:39.000Z,26.70
2017-08-28T14:35:06.592Z,26.90
2017-08-28T14:37:34.167Z,26.90
2017-08-28T14:40:01.747Z,26.70
2017-08-28T14:42:29.295Z,26.70
2017-08-28T14:44:56.848Z,26.50
2017-08-28T14:47:24.410Z,26.50
2017-08-28T14:49:51.964Z,26.10
2017-08-28T14:52:19.479Z,26.00
2017-08-28T14:54:47.017Z,26.10
2017-08-28T14:57:14.626Z,26.10
2017-08-28T14:59:42.179Z,26.20
2017-08-28T15:02:09.698Z,26.30
2017-08-28T15:04:37.270Z,26.30
2017-08-28T15:07:04.788Z,26.20
2017-08-28T15:09:32.335Z,26.20
2017-08-28T15:11:59.900Z,26.10
2017-08-28T15:14:27.511Z,26.00
2017-08-28T15:16:55.035Z,26.00
2017-08-28T15:19:22.572Z,25.90
2017-08-28T15:21:50.120Z,25.90
2017-08-28T15:24:17.642Z,25.90
2017-08-28T15:26:45.166Z,26.00
2017-08-28T15:29:12.723Z,26.00
2017-08-28T15:31:40.259Z,26.10
2017-08-28T15:34:07.789Z,26.00
2017-08-28T15:36:35.346Z,26.00
2017-08-28T15:39:02.932Z,25.90
2017-08-28T15:41:30.490Z,25.80
2017-08-28T15:43:58.015Z,25.70
2017-08-28T15:46:25.551Z,25.60
2017-08-28T15:48:53.124Z,25.50
2017-08-28T15:51:20.757Z,25.50
2017-08-28T15:53:48.279Z,25.40
2017-08-28T15:56:15.796Z,25.40
2017-08-28T15:58:43.352Z,25.40
2017-08-28T16:01:10.866Z,25.40
2017-08-28T16:03:38.399Z,25.40
2017-08-28T16:06:05.956Z,25.40
2017-08-28T16:08:33.499Z,25.40
2017-08-28T16:11:01.273Z,25.40
2017-08-28T16:13:28.879Z,25.40
2017-08-28T16:15:56.437Z,25.50
2017-08-28T16:18:24.008Z,25.60
2017-08-28T16:20:51.544Z,25.60
2017-08-28T16:23:19.076Z,25.50
2017-08-28T16:25:46.633Z,25.40
2017-08-28T16:28:14.167Z,25.00
2017-08-28T16:30:41.721Z,24.90
2017-08-28T16:33:09.249Z,25.00
2017-08-28T16:35:36.819Z,24.90
2017-08-28T16:38:04.335Z,24.90
2017-08-28T16:40:31.889Z,24.90
2017-08-28T16:42:59.416Z,24.80
2017-08-28T16:45:26.974Z,24.70
2017-08-28T16:47:54.493Z,24.80
2017-08-28T16:50:22.119Z,24.90
2017-08-28T16:52:49.678Z,24.90
2017-08-28T16:55:17.204Z,24.90
2017-08-28T16:57:44.747Z,24.80
2017-08-28T17:00:12.308Z,24.80
2017-08-28T17:02:40.067Z,24.80
2017-08-28T17:05:07.583Z,24.70
2017-08-28T17:07:35.191Z,24.80
2017-08-28T17:10:02.760Z,24.70
2017-08-28T17:12:30.275Z,24.60
2017-08-28T17:14:57.791Z,24.60
2017-08-28T17:17:25.388Z,24.50
2017-08-28T17:19:52.921Z,24.40
2017-08-28T17:22:20.475Z,24.40
2017-08-28T17:24:47.995Z,24.30
2017-08-28T17:27:15.552Z,24.20
2017-08-28T17:29:43.080Z,24.10
2017-08-28T17:32:10.624Z,24.10
2017-08-28T17:34:38.152Z,23.90
2017-08-28T17:37:05.753Z,23.80
2017-08-28T17:39:33.538Z,23.80
2017-08-28T17:42:01.120Z,23.90
2017-08-28T17:44:28.721Z,23.70
2017-08-28T17:46:56.329Z,23.90
2017-08-28T17:49:23.862Z,23.70
2017-08-28T17:51:51.384Z,23.60
2017-08-28T17:54:19.127Z,23.50
2017-08-28T17:56:46.673Z,23.40
2017-08-28T17:59:14.195Z,23.30
2017-08-28T18:01:41.755Z,23.50
2017-08-28T18:04:09.312Z,23.30
2017-08-28T18:06:36.888Z,23.10
2017-08-28T18:09:04.443Z,23.10
2017-08-28T18:11:31.962Z,23.20
2017-08-28T18:13:59.526Z,23.10
2017-08-28T18:16:27.056Z,23.00
2017-08-28T18:18:54.578Z,23.00
2017-08-28T18:21:22.174Z,22.80
2017-08-28T18:23:49.931Z,22.70
2017-08-28T18:26:17.522Z,22.70
2017-08-28T18:28:45.039Z,22.40
2017-08-28T18:31:12.596Z,22.20
2017-08-28T18:33:40.158Z,22.30
2017-08-28T18:36:07.680Z,22.30
2017-08-28T18:38:35.297Z,22.30
2017-08-28T18:41:02.814Z,22.20
2017-08-28T18:43:30.380Z,22.20
2017-08-28T18:45:57.904Z,21.90
2017-08-28T18:48:25.429Z,21.60
2017-08-28T18:50:52.983Z,21.60
2017-08-28T18:53:20.498Z,21.60
2017-08-28T18:55:48.060Z,21.50
2017-08-28T18:58:15.577Z,21.30
2017-08-28T19:00:43.092Z,21.40
2017-08-28T19:03:10.657Z,21.30
2017-08-28T19:05:38.176Z,21.30
2017-08-28T19:08:05.779Z,21.20
2017-08-28T19:10:33.332Z,21.30
2017-08-28T19:13:00.864Z,21.20
2017-08-28T19:15:28.439Z,21.10
2017-08-28T19:17:55.987Z,21.00
2017-08-28T19:20:23.512Z,21.00
2017-08-28T19:22:51.069Z,20.90
2017-08-28T19:25:18.596Z,20.90
2017-08-28T19:27:46.144Z,20.80
2017-08-28T19:30:13.676Z,20.60
2017-08-28T19:32:41.245Z,20.60
2017-08-28T19:35:08.760Z,20.70
2017-08-28T19:37:36.321Z,20.90
2017-08-28T19:40:03.876Z,21.10
2017-08-28T19:42:31.395Z,20.90
2017-08-28T19:44:59.081Z,20.80
2017-08-28T19:47:26.595Z,20.80
2017-08-28T19:49:54.107Z,20.70
2017-08-28T19:52:21.660Z,20.70
2017-08-28T19:54:49.290Z,20.60
2017-08-28T19:57:16.869Z,20.50
2017-08-28T19:59:44.391Z,20.60
2017-08-28T20:02:11.935Z,20.60
2017-08-28T20:04:39.485Z,20.70
2017-08-28T20:07:07.042Z,20.80
2017-08-28T20:09:34.608Z,20.60
2017-08-28T20:12:02.148Z,20.60
2017-08-28T20:14:29.781Z,20.60
2017-08-28T20:16:57.451Z,20.50
2017-08-28T20:19:24.968Z,20.60
2017-08-28T20:21:52.522Z,20.60
2017-08-28T20:24:20.055Z,20.40
2017-08-28T20:26:47.617Z,20.60
2017-08-28T20:29:15.137Z,20.20
2017-08-28T20:31:42.652Z,19.90
2017-08-28T20:34:10.259Z,19.80
2017-08-28T20:36:37.875Z,19.70
2017-08-28T20:39:05.391Z,19.60
2017-08-28T20:41:33.009Z,19.80
2017-08-28T20:44:00.553Z,19.70
2017-08-28T20:46:28.134Z,19.90
2017-08-28T20:48:55.700Z,19.80
2017-08-28T20:51:23.227Z,19.50
2017-08-28T20:53:50.884Z,19.40
2017-08-28T20:56:18.484Z,19.40
2017-08-28T20:58:46.122Z,19.60
2017-08-28T21:01:13.723Z,19.70
2017-08-28T21:03:41.251Z,19.70
2017-08-28T21:06:08.964Z,19.80
2017-08-28T21:08:36.624Z,19.70
2017-08-28T21:11:04.153Z,19.60
2017-08-28T21:13:31.717Z,19.50
2017-08-28T21:15:59.278Z,19.40
2017-08-28T21:18:26.818Z,19.30
2017-08-28T21:20:54.385Z,19.30
2017-08-28T21:23:21.913Z,19.40
2017-08-28T21:25:49.504Z,19.30
2017-08-28T21:28:17.101Z,19.20
2017-08-28T21:30:44.625Z,19.10
2017-08-28T21:33:12.321Z,19.30
2017-08-28T21:35:39.888Z,19.40
2017-08-28T21:38:07.419Z,19.40
2017-08-28T21:40:34.995Z,19.30
2017-08-28T21:43:02.524Z,19.40
2017-08-28T21:45:30.039Z,19.40
2017-08-28T21:47:57.594Z,19.40
2017-08-28T21:50:25.146Z,19.40
2017-08-28T21:52:52.670Z,19.30
2017-08-28T21:55:20.226Z,19.20
2017-08-28T21:57:47.784Z,19.10
2017-08-28T22:00:15.343Z,19.00
2017-08-28T22:02:42.863Z,19.00
2017-08-28T22:05:10.385Z,19.00
2017-08-28T22:07:37.945Z,18.90
2017-08-28T22:10:05.466Z,19.00
2017-08-28T22:12:33.059Z,19.10
2017-08-28T22:15:00.678Z,19.10
2017-08-28T22:17:28.263Z,19.00
2017-08-28T22:19:55.788Z,18.90
2017-08-28T22:22:23.314Z,18.80
2017-08-28T22:24:50.885Z,19.00
2017-08-28T22:27:18.432Z,19.10
2017-08-28T22:29:45.957Z,19.10
2017-08-28T22:32:13.516Z,19.00
2017-08-28T22:34:41.077Z,18.90
2017-08-28T22:37:08.683Z,18.90
2017-08-28T22:39:36.215Z,18.50
2017-08-28T22:42:03.788Z,18.50
2017-08-28T22:44:31.400Z,18.60
2017-08-28T22:46:58.924Z,18.70
2017-08-28T22:49:26.522Z,18.70
2017-08-28T22:51:54.107Z,18.70
2017-08-28T22:54:21.670Z,18.50
2017-08-28T22:56:49.193Z,18.40
2017-08-28T22:59:17.479Z,18.50
2017-08-28T23:01:45.048Z,18.40
2017-08-28T23:04:12.653Z,18.40
2017-08-28T23:06:40.376Z,18.60
2017-08-28T23:09:07.940Z,18.50
2017-08-28T23:11:35.513Z,18.40
2017-08-28T23:14:03.132Z,18.40
2017-08-28T23:16:30.647Z,18.30
2017-08-28T23:18:58.216Z,18.40
2017-08-28T23:21:25.865Z,18.20
2017-08-28T23:23:53.410Z,18.20
2017-08-28T23:26:20.968Z,18.30
2017-08-28T23:28:48.538Z,18.20
2017-08-28T23:31:16.165Z,18.30
2017-08-28T23:33:43.732Z,18.50
2017-08-28T23:36:12.019Z,18.40
2017-08-28T23:38:39.635Z,18.30
2017-08-28T23:41:07.170Z,18.30
2017-08-28T23:43:34.724Z,18.10
2017-08-28T23:46:02.285Z,17.80
2017-08-28T23:48:29.848Z,18.00
2017-08-28T23:50:57.436Z,18.00
2017-08-28T23:53:24.955Z,18.00
2017-08-28T23:55:52.589Z,18.00
2017-08-28T23:58:20.118Z,17.70
